sensor_id;sensor_type;location;lat;lon;timestamp;pressure;altitude;pressure_sealevel;temperature;humidity
62634;BME280;48704;50.534;6.442;2023-01-27T00:00:47;95897.59;;;-0.15;100.00
62634;BME280;48704;50.534;6.442;2023-01-27T00:03:13;95890.13;;;-0.11;100.00
62634;BME280;48704;50.534;6.442;2023-01-27T00:05:39;95893.28;;;-0.12;100.00
62634;BME280;48704;50.534;6.442;2023-01-27T00:08:04;95898.34;;;-0.11;100.00
62634;BME280;48704;50.534;6.442;2023-01-27T00:10:29;95898.38;;;-0.14;100.00
62634;BME280;48704;50.534;6.442;2023-01-27T00:12:55;95906.19;;;-0.13;100.00
62634;BME280;48704;50.534;6.442;2023-01-27T00:15:39;95906.22;;;-0.20;100.00
62634;BME280;48704;50.534;6.442;2023-01-27T00:18:04;95904.63;;;-0.14;100.00
62634;BME280;48704;50.534;6.442;2023-01-27T00:20:30;95899.09;;;-0.07;100.00
62634;BME280;48704;50.534;6.442;2023-01-27T00:23:16;95905.03;;;-0.19;100.00
62634;BME280;48704;50.534;6.442;2023-01-27T00:26:05;95905.06;;;-0.22;100.00
62634;BME280;48704;50.534;6.442;2023-01-27T00:28:32;95910.09;;;-0.14;100.00
62634;BME280;48704;50.534;6.442;2023-01-27T00:30:58;95912.50;;;-0.23;100.00
62634;BME280;48704;50.534;6.442;2023-01-27T00:33:24;95907.00;;;-0.19;100.00
62634;BME280;48704;50.534;6.442;2023-01-27T00:36:06;95899.97;;;-0.20;100.00
62634;BME280;48704;50.534;6.442;2023-01-27T00:38:34;95895.66;;;-0.18;100.00
62634;BME280;48704;50.534;6.442;2023-01-27T00:41:05;95903.50;;;-0.23;100.00
62634;BME280;48704;50.534;6.442;2023-01-27T00:43:40;95904.25;;;-0.19;100.00
62634;BME280;48704;50.534;6.442;2023-01-27T00:46:06;95904.66;;;-0.17;100.00
62634;BME280;48704;50.534;6.442;2023-01-27T00:48:31;95897.25;;;-0.27;100.00
62634;BME280;48704;50.534;6.442;2023-01-27T00:50:57;95902.72;;;-0.24;100.00
62634;BME280;48704;50.534;6.442;2023-01-27T00:53:22;95902.38;;;-0.33;100.00
62634;BME280;48704;50.534;6.442;2023-01-27T00:55:48;95903.91;;;-0.25;100.00
62634;BME280;48704;50.534;6.442;2023-01-27T00:58:14;95905.47;;;-0.24;100.00
62634;BME280;48704;50.534;6.442;2023-01-27T01:00:39;95912.47;;;-0.16;100.00
62634;BME280;48704;50.534;6.442;2023-01-27T01:03:04;95908.97;;;-0.20;100.00
62634;BME280;48704;50.534;6.442;2023-01-27T01:05:30;95902.69;;;-0.20;100.00
62634;BME280;48704;50.534;6.442;2023-01-27T01:07:55;95910.97;;;-0.31;100.00
62634;BME280;48704;50.534;6.442;2023-01-27T01:10:20;95900.78;;;-0.27;100.00
62634;BME280;48704;50.534;6.442;2023-01-27T01:12:46;95911.34;;;-0.29;100.00
62634;BME280;48704;50.534;6.442;2023-01-27T01:15:11;95905.50;;;-0.31;100.00
62634;BME280;48704;50.534;6.442;2023-01-27T01:17:36;95908.59;;;-0.25;100.00
62634;BME280;48704;50.534;6.442;2023-01-27T01:20:02;95916.44;;;-0.31;100.00
62634;BME280;48704;50.534;6.442;2023-01-27T01:22:27;95914.09;;;-0.29;100.00
62634;BME280;48704;50.534;6.442;2023-01-27T01:24:52;95907.91;;;-0.40;100.00
62634;BME280;48704;50.534;6.442;2023-01-27T01:27:17;95916.84;;;-0.36;100.00
62634;BME280;48704;50.534;6.442;2023-01-27T01:29:43;95919.97;;;-0.34;100.00
62634;BME280;48704;50.534;6.442;2023-01-27T01:32:08;95912.16;;;-0.32;100.00
62634;BME280;48704;50.534;6.442;2023-01-27T01:34:36;95914.50;;;-0.30;100.00
62634;BME280;48704;50.534;6.442;2023-01-27T01:37:02;95918.81;;;-0.37;100.00
62634;BME280;48704;50.534;6.442;2023-01-27T01:39:28;95914.94;;;-0.39;100.00
62634;BME280;48704;50.534;6.442;2023-01-27T01:41:54;95917.31;;;-0.41;100.00
62634;BME280;48704;50.534;6.442;2023-01-27T01:44:30;95914.97;;;-0.46;100.00
62634;BME280;48704;50.534;6.442;2023-01-27T01:46:56;95918.88;;;-0.47;100.00
62634;BME280;48704;50.534;6.442;2023-01-27T01:49:32;95917.31;;;-0.48;100.00
62634;BME280;48704;50.534;6.442;2023-01-27T01:52:02;95929.84;;;-0.47;100.00
62634;BME280;48704;50.534;6.442;2023-01-27T01:54:32;95923.56;;;-0.44;100.00
62634;BME280;48704;50.534;6.442;2023-01-27T01:57:09;95918.91;;;-0.54;100.00
62634;BME280;48704;50.534;6.442;2023-01-27T01:59:41;95909.53;;;-0.53;100.00
62634;BME280;48704;50.534;6.442;2023-01-27T02:02:13;95916.59;;;-0.59;100.00
62634;BME280;48704;50.534;6.442;2023-01-27T02:05:19;95918.97;;;-0.69;100.00
62634;BME280;48704;50.534;6.442;2023-01-27T02:10:20;95924.44;;;-0.69;100.00
62634;BME280;48704;50.534;6.442;2023-01-27T02:12:45;95917.00;;;-0.64;100.00
62634;BME280;48704;50.534;6.442;2023-01-27T02:15:11;95920.50;;;-0.64;100.00
62634;BME280;48704;50.534;6.442;2023-01-27T02:17:37;95918.16;;;-0.65;100.00
62634;BME280;48704;50.534;6.442;2023-01-27T02:25:49;95914.22;;;-0.57;100.00
62634;BME280;48704;50.534;6.442;2023-01-27T02:28:16;95920.88;;;-0.58;100.00
62634;BME280;48704;50.534;6.442;2023-01-27T02:30:41;95929.09;;;-0.58;100.00
62634;BME280;48704;50.534;6.442;2023-01-27T02:33:13;95928.72;;;-0.60;100.00
62634;BME280;48704;50.534;6.442;2023-01-27T02:38:19;95920.88;;;-0.58;100.00
62634;BME280;48704;50.534;6.442;2023-01-27T02:40:51;95928.28;;;-0.48;100.00
62634;BME280;48704;50.534;6.442;2023-01-27T02:43:17;95923.66;;;-0.69;100.00
62634;BME280;48704;50.534;6.442;2023-01-27T02:45:45;95921.31;;;-0.71;100.00
62634;BME280;48704;50.534;6.442;2023-01-27T02:48:11;95928.75;;;-0.71;100.00
62634;BME280;48704;50.534;6.442;2023-01-27T02:50:36;95927.97;;;-0.72;100.00
62634;BME280;48704;50.534;6.442;2023-01-27T02:53:01;95930.66;;;-0.61;100.00
62634;BME280;48704;50.534;6.442;2023-01-27T02:55:27;95921.28;;;-0.63;100.00
62634;BME280;48704;50.534;6.442;2023-01-27T02:57:52;95932.25;;;-0.63;100.00
62634;BME280;48704;50.534;6.442;2023-01-27T03:00:17;95929.13;;;-0.65;100.00
62634;BME280;48704;50.534;6.442;2023-01-27T03:02:43;95918.22;;;-0.80;100.00
62634;BME280;48704;50.534;6.442;2023-01-27T03:05:08;95924.47;;;-0.76;100.00
62634;BME280;48704;50.534;6.442;2023-01-27T03:07:33;95937.34;;;-0.73;100.00
62634;BME280;48704;50.534;6.442;2023-01-27T03:09:59;95933.88;;;-0.77;100.00
62634;BME280;48704;50.534;6.442;2023-01-27T03:12:24;95935.44;;;-0.79;100.00
62634;BME280;48704;50.534;6.442;2023-01-27T03:14:50;95940.94;;;-0.90;100.00
62634;BME280;48704;50.534;6.442;2023-01-27T03:17:36;95935.06;;;-0.85;100.00
62634;BME280;48704;50.534;6.442;2023-01-27T03:20:20;95943.28;;;-0.92;100.00
62634;BME280;48704;50.534;6.442;2023-01-27T03:22:46;95930.75;;;-0.86;100.00
62634;BME280;48704;50.534;6.442;2023-01-27T03:25:12;95931.53;;;-0.89;100.00
62634;BME280;48704;50.534;6.442;2023-01-27T03:27:37;95939.38;;;-0.98;100.00
62634;BME280;48704;50.534;6.442;2023-01-27T03:30:04;95937.03;;;-0.92;100.00
62634;BME280;48704;50.534;6.442;2023-01-27T03:32:30;95937.44;;;-1.01;100.00
62634;BME280;48704;50.534;6.442;2023-01-27T03:34:56;95937.81;;;-0.95;100.00
62634;BME280;48704;50.534;6.442;2023-01-27T03:37:26;95940.94;;;-1.04;100.00
62634;BME280;48704;50.534;6.442;2023-01-27T03:40:11;95933.13;;;-0.95;100.00
62634;BME280;48704;50.534;6.442;2023-01-27T03:42:55;95919.81;;;-0.93;100.00
62634;BME280;48704;50.534;6.442;2023-01-27T03:45:40;95930.75;;;-0.86;100.00
62634;BME280;48704;50.534;6.442;2023-01-27T03:48:26;95942.50;;;-0.96;100.00
62634;BME280;48704;50.534;6.442;2023-01-27T03:50:56;95941.34;;;-0.98;100.00
62634;BME280;48704;50.534;6.442;2023-01-27T03:53:21;95937.44;;;-1.08;100.00
62634;BME280;48704;50.534;6.442;2023-01-27T03:55:47;95944.84;;;-0.91;100.00
62634;BME280;48704;50.534;6.442;2023-01-27T03:58:21;95942.91;;;-0.97;100.00
62634;BME280;48704;50.534;6.442;2023-01-27T04:00:52;95940.94;;;-1.11;100.00
62634;BME280;48704;50.534;6.442;2023-01-27T04:03:19;95937.03;;;-1.07;100.00
62634;BME280;48704;50.534;6.442;2023-01-27T04:06:05;95944.06;;;-0.95;100.00
62634;BME280;48704;50.534;6.442;2023-01-27T04:08:50;95937.03;;;-0.96;100.00
62634;BME280;48704;50.534;6.442;2023-01-27T04:11:15;95941.72;;;-1.07;100.00
62634;BME280;48704;50.534;6.442;2023-01-27T04:14:00;95940.94;;;-1.11;100.00
62634;BME280;48704;50.534;6.442;2023-01-27T04:16:26;95937.81;;;-1.06;100.00
62634;BME280;48704;50.534;6.442;2023-01-27T04:18:55;95948.38;;;-1.08;100.00
62634;BME280;48704;50.534;6.442;2023-01-27T04:21:20;95947.97;;;-1.10;100.00
62634;BME280;48704;50.534;6.442;2023-01-27T04:23:46;95943.34;;;-1.20;100.00
62634;BME280;48704;50.534;6.442;2023-01-27T04:26:11;95942.56;;;-1.17;100.00
62634;BME280;48704;50.534;6.442;2023-01-27T04:28:36;95943.34;;;-1.20;100.00
62634;BME280;48704;50.534;6.442;2023-01-27T04:31:02;95957.38;;;-1.11;100.00
62634;BME280;48704;50.534;6.442;2023-01-27T04:33:27;95950.38;;;-1.19;100.00
62634;BME280;48704;50.534;6.442;2023-01-27T04:35:54;95952.31;;;-1.23;100.00
62634;BME280;48704;50.534;6.442;2023-01-27T04:38:19;95954.28;;;-1.17;100.00
62634;BME280;48704;50.534;6.442;2023-01-27T04:40:44;95952.72;;;-1.28;100.00
62634;BME280;48704;50.534;6.442;2023-01-27T04:43:10;95958.19;;;-1.36;100.00
62634;BME280;48704;50.534;6.442;2023-01-27T04:45:35;95952.72;;;-1.36;100.00
62634;BME280;48704;50.534;6.442;2023-01-27T04:48:00;95952.72;;;-1.28;100.00
62634;BME280;48704;50.534;6.442;2023-01-27T04:50:26;95956.22;;;-1.35;100.00
62634;BME280;48704;50.534;6.442;2023-01-27T04:52:51;95966.38;;;-1.39;100.00
62634;BME280;48704;50.534;6.442;2023-01-27T04:55:16;95963.66;;;-1.36;100.00
62634;BME280;48704;50.534;6.442;2023-01-27T04:57:41;95965.22;;;-1.35;100.00
62634;BME280;48704;50.534;6.442;2023-01-27T05:00:08;95968.72;;;-1.38;100.00
62634;BME280;48704;50.534;6.442;2023-01-27T05:02:34;95964.44;;;-1.35;100.00
62634;BME280;48704;50.534;6.442;2023-01-27T05:04:59;95964.44;;;-1.39;100.00
62634;BME280;48704;50.534;6.442;2023-01-27T05:07:28;95972.25;;;-1.41;100.00
62634;BME280;48704;50.534;6.442;2023-01-27T05:09:54;95977.72;;;-1.51;100.00
62634;BME280;48704;50.534;6.442;2023-01-27T05:12:19;95966.75;;;-1.48;100.00
62634;BME280;48704;50.534;6.442;2023-01-27T05:14:44;95983.16;;;-1.41;100.00
62634;BME280;48704;50.534;6.442;2023-01-27T05:17:09;95979.25;;;-1.47;100.00
62634;BME280;48704;50.534;6.442;2023-01-27T05:19:35;95987.84;;;-1.45;100.00
62634;BME280;48704;50.534;6.442;2023-01-27T05:22:00;95986.69;;;-1.47;100.00
62634;BME280;48704;50.534;6.442;2023-01-27T05:24:25;95977.69;;;-1.48;100.00
62634;BME280;48704;50.534;6.442;2023-01-27T05:26:50;95970.31;;;-1.51;100.00
62634;BME280;48704;50.534;6.442;2023-01-27T05:29:17;95969.50;;;-1.48;100.00
62634;BME280;48704;50.534;6.442;2023-01-27T05:31:42;95980.84;;;-1.49;100.00
62634;BME280;48704;50.534;6.442;2023-01-27T05:34:08;95978.50;;;-1.61;100.00
62634;BME280;48704;50.534;6.442;2023-01-27T05:36:33;95973.81;;;-1.54;100.00
62634;BME280;48704;50.534;6.442;2023-01-27T05:38:59;95982.78;;;-1.53;100.00
62634;BME280;48704;50.534;6.442;2023-01-27T05:41:24;95980.84;;;-1.53;100.00
62634;BME280;48704;50.534;6.442;2023-01-27T05:43:52;95978.09;;;-1.53;100.00
62634;BME280;48704;50.534;6.442;2023-01-27T05:46:19;95983.97;;;-1.51;100.00
62634;BME280;48704;50.534;6.442;2023-01-27T05:48:48;95983.59;;;-1.49;100.00
62634;BME280;48704;50.534;6.442;2023-01-27T05:51:15;95984.38;;;-1.49;100.00
62634;BME280;48704;50.534;6.442;2023-01-27T05:53:42;95990.19;;;-1.47;100.00
62634;BME280;48704;50.534;6.442;2023-01-27T05:56:09;95996.47;;;-1.50;100.00
62634;BME280;48704;50.534;6.442;2023-01-27T05:58:35;95995.66;;;-1.47;100.00
62634;BME280;48704;50.534;6.442;2023-01-27T06:01:15;95993.72;;;-1.43;100.00
62634;BME280;48704;50.534;6.442;2023-01-27T06:03:42;95987.84;;;-1.38;100.00
62634;BME280;48704;50.534;6.442;2023-01-27T06:06:08;95993.34;;;-1.52;100.00
62634;BME280;48704;50.534;6.442;2023-01-27T06:08:34;96003.84;;;-1.47;100.00
62634;BME280;48704;50.534;6.442;2023-01-27T06:11:00;96003.06;;;-1.44;100.00
62634;BME280;48704;50.534;6.442;2023-01-27T06:13:26;95999.56;;;-1.48;100.00
62634;BME280;48704;50.534;6.442;2023-01-27T06:15:51;96007.38;;;-1.43;100.00
62634;BME280;48704;50.534;6.442;2023-01-27T06:18:17;96008.97;;;-1.49;100.00
62634;BME280;48704;50.534;6.442;2023-01-27T06:20:44;95999.56;;;-1.48;100.00
62634;BME280;48704;50.534;6.442;2023-01-27T06:23:11;96012.06;;;-1.47;100.00
62634;BME280;48704;50.534;6.442;2023-01-27T06:25:45;96014.44;;;-1.49;100.00
62634;BME280;48704;50.534;6.442;2023-01-27T06:28:11;96012.84;;;-1.57;100.00
62634;BME280;48704;50.534;6.442;2023-01-27T06:30:38;96023.00;;;-1.43;100.00
62634;BME280;48704;50.534;6.442;2023-01-27T06:33:04;96016.34;;;-1.46;100.00
62634;BME280;48704;50.534;6.442;2023-01-27T06:35:31;96018.31;;;-1.36;100.00
62634;BME280;48704;50.534;6.442;2023-01-27T06:37:57;96015.19;;;-1.30;100.00
62634;BME280;48704;50.534;6.442;2023-01-27T06:40:23;96020.66;;;-1.38;100.00
62634;BME280;48704;50.534;6.442;2023-01-27T06:42:49;96016.75;;;-1.37;100.00
62634;BME280;48704;50.534;6.442;2023-01-27T06:45:14;96018.31;;;-1.43;100.00
62634;BME280;48704;50.534;6.442;2023-01-27T06:47:40;96019.88;;;-1.38;100.00
62634;BME280;48704;50.534;6.442;2023-01-27T06:50:07;96030.81;;;-1.35;100.00
62634;BME280;48704;50.534;6.442;2023-01-27T06:52:33;96026.91;;;-1.41;100.00
62634;BME280;48704;50.534;6.442;2023-01-27T06:54:58;96021.44;;;-1.41;100.00
62634;BME280;48704;50.534;6.442;2023-01-27T06:57:24;96035.50;;;-1.39;100.00
62634;BME280;48704;50.534;6.442;2023-01-27T06:59:49;96030.03;;;-1.42;100.00
62634;BME280;48704;50.534;6.442;2023-01-27T07:02:14;96040.19;;;-1.32;100.00
62634;BME280;48704;50.534;6.442;2023-01-27T07:04:39;96035.50;;;-1.28;100.00
62634;BME280;48704;50.534;6.442;2023-01-27T07:07:05;96039.41;;;-1.32;100.00
62634;BME280;48704;50.534;6.442;2023-01-27T07:09:30;96039.44;;;-1.22;100.00
62634;BME280;48704;50.534;6.442;2023-01-27T07:11:55;96046.44;;;-1.24;100.00
62634;BME280;48704;50.534;6.442;2023-01-27T07:14:21;96040.97;;;-1.24;100.00
62634;BME280;48704;50.534;6.442;2023-01-27T07:16:46;96048.78;;;-1.26;100.00
62634;BME280;48704;50.534;6.442;2023-01-27T07:19:11;96051.91;;;-1.31;100.00
62634;BME280;48704;50.534;6.442;2023-01-27T07:21:37;96055.81;;;-1.25;100.00
62634;BME280;48704;50.534;6.442;2023-01-27T07:24:04;96053.47;;;-1.27;100.00
62634;BME280;48704;50.534;6.442;2023-01-27T07:26:29;96055.44;;;-1.27;100.00
62634;BME280;48704;50.534;6.442;2023-01-27T07:28:55;96055.81;;;-1.22;100.00
62634;BME280;48704;50.534;6.442;2023-01-27T07:31:21;96051.13;;;-1.28;100.00
62634;BME280;48704;50.534;6.442;2023-01-27T07:33:46;96058.94;;;-1.30;100.00
62634;BME280;48704;50.534;6.442;2023-01-27T07:36:11;96061.28;;;-1.25;100.00
62634;BME280;48704;50.534;6.442;2023-01-27T07:38:37;96058.19;;;-1.20;100.00
62634;BME280;48704;50.534;6.442;2023-01-27T07:41:04;96057.38;;;-1.24;100.00
62634;BME280;48704;50.534;6.442;2023-01-27T07:43:30;96060.53;;;-1.22;100.00
62634;BME280;48704;50.534;6.442;2023-01-27T07:45:55;96060.53;;;-1.22;100.00
62634;BME280;48704;50.534;6.442;2023-01-27T07:48:21;96069.13;;;-1.13;100.00
62634;BME280;48704;50.534;6.442;2023-01-27T07:50:46;96069.47;;;-1.11;100.00
62634;BME280;48704;50.534;6.442;2023-01-27T07:53:12;96060.13;;;-1.14;100.00
62634;BME280;48704;50.534;6.442;2023-01-27T07:55:37;96062.88;;;-1.17;100.00
62634;BME280;48704;50.534;6.442;2023-01-27T07:58:03;96062.88;;;-1.17;100.00
62634;BME280;48704;50.534;6.442;2023-01-27T08:00:28;96069.09;;;-1.10;100.00
62634;BME280;48704;50.534;6.442;2023-01-27T08:02:55;96073.78;;;-1.24;100.00
62634;BME280;48704;50.534;6.442;2023-01-27T08:05:21;96071.44;;;-1.08;100.00
62634;BME280;48704;50.534;6.442;2023-01-27T08:07:48;96066.75;;;-1.11;100.00
62634;BME280;48704;50.534;6.442;2023-01-27T08:10:14;96074.19;;;-1.01;100.00
62634;BME280;48704;50.534;6.442;2023-01-27T08:12:39;96076.16;;;-0.94;100.00
62634;BME280;48704;50.534;6.442;2023-01-27T08:15:05;96076.94;;;-0.94;100.00
62634;BME280;48704;50.534;6.442;2023-01-27T08:17:31;96074.59;;;-0.92;100.00
62634;BME280;48704;50.534;6.442;2023-01-27T08:19:56;96077.69;;;-1.04;100.00
62634;BME280;48704;50.534;6.442;2023-01-27T08:22:21;96081.22;;;-0.89;100.00
62634;BME280;48704;50.534;6.442;2023-01-27T08:24:49;96083.19;;;-0.83;100.00
62634;BME280;48704;50.534;6.442;2023-01-27T08:27:16;96071.47;;;-0.80;100.00
62634;BME280;48704;50.534;6.442;2023-01-27T08:29:41;96073.81;;;-0.82;100.00
62634;BME280;48704;50.534;6.442;2023-01-27T08:32:07;96078.88;;;-0.91;100.00
62634;BME280;48704;50.534;6.442;2023-01-27T08:34:33;96075.38;;;-0.81;100.00
62634;BME280;48704;50.534;6.442;2023-01-27T08:36:59;96082.78;;;-0.99;100.00
62634;BME280;48704;50.534;6.442;2023-01-27T08:39:25;96082.00;;;-0.85;100.00
62634;BME280;48704;50.534;6.442;2023-01-27T08:41:50;96076.16;;;-0.77;100.00
62634;BME280;48704;50.534;6.442;2023-01-27T08:44:16;96084.75;;;-0.92;100.00
62634;BME280;48704;50.534;6.442;2023-01-27T08:46:41;96082.00;;;-0.89;100.00
62634;BME280;48704;50.534;6.442;2023-01-27T08:49:07;96090.22;;;-0.75;100.00
62634;BME280;48704;50.534;6.442;2023-01-27T08:51:32;96085.50;;;-0.71;100.00
62634;BME280;48704;50.534;6.442;2023-01-27T08:53:58;96087.88;;;-0.87;100.00
62634;BME280;48704;50.534;6.442;2023-01-27T08:56:23;96088.66;;;-0.76;100.00
62634;BME280;48704;50.534;6.442;2023-01-27T08:58:49;96091.75;;;-0.70;100.00
62634;BME280;48704;50.534;6.442;2023-01-27T09:01:17;96099.56;;;-0.61;100.00
62634;BME280;48704;50.534;6.442;2023-01-27T09:03:43;96099.56;;;-0.58;100.00
62634;BME280;48704;50.534;6.442;2023-01-27T09:06:10;96102.69;;;-0.59;100.00
62634;BME280;48704;50.534;6.442;2023-01-27T09:08:36;96102.69;;;-0.52;100.00
62634;BME280;48704;50.534;6.442;2023-01-27T09:11:27;96103.09;;;-0.54;100.00
62634;BME280;48704;50.534;6.442;2023-01-27T09:13:55;96094.88;;;-0.43;100.00
62634;BME280;48704;50.534;6.442;2023-01-27T09:16:20;96100.31;;;-0.32;100.00
62634;BME280;48704;50.534;6.442;2023-01-27T09:18:45;96110.47;;;-0.33;100.00
62634;BME280;48704;50.534;6.442;2023-01-27T09:21:11;96097.22;;;-0.42;100.00
62634;BME280;48704;50.534;6.442;2023-01-27T09:23:36;96108.94;;;-0.41;100.00
62634;BME280;48704;50.534;6.442;2023-01-27T09:26:01;96104.97;;;-0.15;100.00
62634;BME280;48704;50.534;6.442;2023-01-27T09:28:26;96102.25;;;-0.33;100.00
62634;BME280;48704;50.534;6.442;2023-01-27T09:30:56;96099.16;;;-0.39;100.00
62634;BME280;48704;50.534;6.442;2023-01-27T09:33:21;96103.44;;;-0.30;100.00
62634;BME280;48704;50.534;6.442;2023-01-27T09:35:50;96100.28;;;-0.29;100.00
62634;BME280;48704;50.534;6.442;2023-01-27T09:38:20;96101.03;;;-0.11;100.00
62634;BME280;48704;50.534;6.442;2023-01-27T09:46:29;96110.38;;;0.06;100.00
62634;BME280;48704;50.534;6.442;2023-01-27T09:57:40;96127.56;;;0.14;100.00
62634;BME280;48704;50.534;6.442;2023-01-27T10:21:56;96145.47;;;0.43;100.00
62634;BME280;48704;50.534;6.442;2023-01-27T10:27:19;96148.69;;;0.20;100.00
62634;BME280;48704;50.534;6.442;2023-01-27T10:29:58;96143.13;;;0.38;100.00
62634;BME280;48704;50.534;6.442;2023-01-27T10:35:07;96150.28;;;0.14;100.00
62634;BME280;48704;50.534;6.442;2023-01-27T10:37:47;96152.22;;;0.17;100.00
62634;BME280;48704;50.534;6.442;2023-01-27T10:43:09;96158.56;;;-0.04;100.00
62634;BME280;48704;50.534;6.442;2023-01-27T10:46:00;96159.69;;;0.03;100.00
62634;BME280;48704;50.534;6.442;2023-01-27T10:48:44;96160.47;;;0.07;100.00
62634;BME280;48704;50.534;6.442;2023-01-27T10:54:20;96154.97;;;0.14;100.00
62634;BME280;48704;50.534;6.442;2023-01-27T10:56:58;96158.84;;;0.27;100.00
62634;BME280;48704;50.534;6.442;2023-01-27T10:59:33;96147.13;;;0.16;100.00
62634;BME280;48704;50.534;6.442;2023-01-27T11:02:12;96151.03;;;0.29;100.00
62634;BME280;48704;50.534;6.442;2023-01-27T11:04:42;96162.75;;;0.33;100.00
62634;BME280;48704;50.534;6.442;2023-01-27T11:07:17;96161.97;;;0.29;100.00
62634;BME280;48704;50.534;6.442;2023-01-27T11:12:31;96147.16;;;0.02;100.00
62634;BME280;48704;50.534;6.442;2023-01-27T11:15:00;96155.72;;;0.25;100.00
62634;BME280;48704;50.534;6.442;2023-01-27T11:17:45;96158.78;;;0.38;100.00
62634;BME280;48704;50.534;6.442;2023-01-27T11:23:04;96147.34;;;0.60;100.00
62634;BME280;48704;50.534;6.442;2023-01-27T11:28:33;96157.13;;;0.65;100.00
62634;BME280;48704;50.534;6.442;2023-01-27T11:36:54;96141.50;;;0.55;100.00
62634;BME280;48704;50.534;6.442;2023-01-27T11:39:20;96136.78;;;0.62;100.00
62634;BME280;48704;50.534;6.442;2023-01-27T11:41:54;96143.84;;;0.53;100.00
62634;BME280;48704;50.534;6.442;2023-01-27T11:44:23;96133.19;;;0.73;100.00
62634;BME280;48704;50.534;6.442;2023-01-27T11:46:51;96132.06;;;0.63;100.00
62634;BME280;48704;50.534;6.442;2023-01-27T11:49:29;96132.88;;;0.56;100.00
62634;BME280;48704;50.534;6.442;2023-01-27T11:52:00;96132.13;;;0.52;100.00
62634;BME280;48704;50.534;6.442;2023-01-27T11:54:34;96134.13;;;0.41;100.00
62634;BME280;48704;50.534;6.442;2023-01-27T11:57:01;96133.28;;;0.55;100.00
62634;BME280;48704;50.534;6.442;2023-01-27T11:59:30;96121.91;;;0.56;100.00
62634;BME280;48704;50.534;6.442;2023-01-27T12:02:01;96123.47;;;0.57;100.00
62634;BME280;48704;50.534;6.442;2023-01-27T12:04:47;96118.63;;;0.83;100.00
62634;BME280;48704;50.534;6.442;2023-01-27T12:09:44;96124.88;;;0.87;100.00
62634;BME280;48704;50.534;6.442;2023-01-27T12:14:37;96112.31;;;0.86;100.00
62634;BME280;48704;50.534;6.442;2023-01-27T12:17:04;96107.66;;;0.79;100.00
62634;BME280;48704;50.534;6.442;2023-01-27T12:19:36;96107.56;;;0.93;100.00
62634;BME280;48704;50.534;6.442;2023-01-27T12:22:12;96104.47;;;0.91;100.00
62634;BME280;48704;50.534;6.442;2023-01-27T12:24:47;96100.47;;;1.03;100.00
62634;BME280;48704;50.534;6.442;2023-01-27T12:27:22;96103.31;;;0.85;100.00
62634;BME280;48704;50.534;6.442;2023-01-27T12:29:54;96089.66;;;0.75;100.00
62634;BME280;48704;50.534;6.442;2023-01-27T12:32:37;96094.41;;;0.71;100.00
62634;BME280;48704;50.534;6.442;2023-01-27T12:35:05;96091.59;;;0.81;100.00
62634;BME280;48704;50.534;6.442;2023-01-27T12:37:35;96093.47;;;0.91;100.00
62634;BME280;48704;50.534;6.442;2023-01-27T12:40:03;96087.13;;;1.05;100.00
62634;BME280;48704;50.534;6.442;2023-01-27T12:42:47;96092.66;;;0.98;100.00
62634;BME280;48704;50.534;6.442;2023-01-27T12:50:25;96085.44;;;1.18;100.00
62634;BME280;48704;50.534;6.442;2023-01-27T12:55:37;96090.91;;;1.18;100.00
62634;BME280;48704;50.534;6.442;2023-01-27T12:58:03;96080.38;;;1.13;100.00
62634;BME280;48704;50.534;6.442;2023-01-27T13:00:29;96080.09;;;1.00;100.00
62634;BME280;48704;50.534;6.442;2023-01-27T13:03:10;96081.69;;;0.98;100.00
62634;BME280;48704;50.534;6.442;2023-01-27T13:05:37;96084.84;;;0.93;100.00
62634;BME280;48704;50.534;6.442;2023-01-27T13:08:03;96084.06;;;0.92;100.00
62634;BME280;48704;50.534;6.442;2023-01-27T13:10:29;96091.97;;;0.80;100.00
62634;BME280;48704;50.534;6.442;2023-01-27T13:12:57;96082.47;;;0.95;100.00
62634;BME280;48704;50.534;6.442;2023-01-27T13:15:25;96081.31;;;0.96;100.00
62634;BME280;48704;50.534;6.442;2023-01-27T13:17:56;96084.03;;;0.99;100.00
62634;BME280;48704;50.534;6.442;2023-01-27T13:20:29;96079.31;;;1.00;100.00
62634;BME280;48704;50.534;6.442;2023-01-27T13:23:14;96079.59;;;1.13;100.00
62634;BME280;48704;50.534;6.442;2023-01-27T13:25:46;96081.94;;;1.14;100.00
62634;BME280;48704;50.534;6.442;2023-01-27T13:28:29;96073.81;;;1.04;100.00
62634;BME280;48704;50.534;6.442;2023-01-27T13:31:02;96079.41;;;0.86;100.00
62634;BME280;48704;50.534;6.442;2023-01-27T13:33:43;96082.81;;;1.04;100.00
62634;BME280;48704;50.534;6.442;2023-01-27T13:38:56;96076.91;;;1.09;100.00
62634;BME280;48704;50.534;6.442;2023-01-27T13:44:23;96078.97;;;0.91;100.00
62634;BME280;48704;50.534;6.442;2023-01-27T13:46:52;96091.97;;;0.80;100.00
62634;BME280;48704;50.534;6.442;2023-01-27T13:49:36;96092.75;;;0.84;100.00
62634;BME280;48704;50.534;6.442;2023-01-27T13:52:04;96092.75;;;0.84;100.00
62634;BME280;48704;50.534;6.442;2023-01-27T13:54:31;96090.41;;;0.79;100.00
62634;BME280;48704;50.534;6.442;2023-01-27T14:08:19;96111.47;;;0.99;100.00
62634;BME280;48704;50.534;6.442;2023-01-27T14:19:14;96118.56;;;0.93;100.00
62634;BME280;48704;50.534;6.442;2023-01-27T14:24:57;96119.28;;;1.01;100.00
62634;BME280;48704;50.534;6.442;2023-01-27T14:27:33;96122.50;;;0.89;100.00
62634;BME280;48704;50.534;6.442;2023-01-27T14:30:08;96115.41;;;0.95;100.00
62634;BME280;48704;50.534;6.442;2023-01-27T14:32:46;96117.78;;;0.93;100.00
62634;BME280;48704;50.534;6.442;2023-01-27T14:35:28;96120.84;;;1.02;100.00
62634;BME280;48704;50.534;6.442;2023-01-27T14:38:10;96128.31;;;0.98;100.00
62634;BME280;48704;50.534;6.442;2023-01-27T14:40:53;96122.91;;;0.84;100.00
62634;BME280;48704;50.534;6.442;2023-01-27T14:49:22;96131.34;;;0.52;100.00
62634;BME280;48704;50.534;6.442;2023-01-27T14:51:56;96122.69;;;0.60;100.00
62634;BME280;48704;50.534;6.442;2023-01-27T14:54:48;96121.16;;;0.49;100.00
62634;BME280;48704;50.534;6.442;2023-01-27T14:59:57;96127.31;;;0.71;100.00
62634;BME280;48704;50.534;6.442;2023-01-27T15:10:24;96139.97;;;0.43;100.00
62634;BME280;48704;50.534;6.442;2023-01-27T15:13:15;96146.22;;;0.47;100.00